sensor_id;sensor_type;location;lat;lon;timestamp;P1;durP1;ratioP1;P2;durP2;ratioP2
76157;SDS011;64907;51.574;6.502;2023-08-07T00:00:53;7.35;;;3.22;;
76157;SDS011;64907;51.574;6.502;2023-08-07T00:03:18;9.27;;;3.13;;
76157;SDS011;64907;51.574;6.502;2023-08-07T00:05:50;13.70;;;3.22;;
76157;SDS011;64907;51.574;6.502;2023-08-07T00:08:16;4.32;;;2.47;;
76157;SDS011;64907;51.574;6.502;2023-08-07T00:10:42;8.40;;;3.40;;
76157;SDS011;64907;51.574;6.502;2023-08-07T00:13:07;11.10;;;3.17;;
76157;SDS011;64907;51.574;6.502;2023-08-07T00:15:38;16.98;;;4.10;;
76157;SDS011;64907;51.574;6.502;2023-08-07T00:18:04;12.45;;;3.60;;
76157;SDS011;64907;51.574;6.502;2023-08-07T00:20:29;11.13;;;3.60;;
76157;SDS011;64907;51.574;6.502;2023-08-07T00:25:24;12.60;;;3.22;;
76157;SDS011;64907;51.574;6.502;2023-08-07T00:27:50;9.17;;;3.30;;
76157;SDS011;64907;51.574;6.502;2023-08-07T00:30:15;8.00;;;3.40;;
76157;SDS011;64907;51.574;6.502;2023-08-07T00:32:40;9.27;;;3.27;;
76157;SDS011;64907;51.574;6.502;2023-08-07T00:35:05;10.20;;;2.90;;
76157;SDS011;64907;51.574;6.502;2023-08-07T00:37:31;9.80;;;2.55;;
76157;SDS011;64907;51.574;6.502;2023-08-07T00:39:56;10.13;;;3.50;;
76157;SDS011;64907;51.574;6.502;2023-08-07T00:42:35;10.68;;;3.00;;
76157;SDS011;64907;51.574;6.502;2023-08-07T00:45:00;10.48;;;3.58;;
76157;SDS011;64907;51.574;6.502;2023-08-07T00:47:26;9.63;;;3.13;;
76157;SDS011;64907;51.574;6.502;2023-08-07T00:49:51;6.65;;;2.55;;
76157;SDS011;64907;51.574;6.502;2023-08-07T00:52:16;12.95;;;3.10;;
76157;SDS011;64907;51.574;6.502;2023-08-07T00:54:42;13.68;;;3.97;;
76157;SDS011;64907;51.574;6.502;2023-08-07T00:57:11;11.05;;;3.72;;
76157;SDS011;64907;51.574;6.502;2023-08-07T00:59:42;8.60;;;3.20;;
76157;SDS011;64907;51.574;6.502;2023-08-07T01:02:08;9.55;;;3.35;;
76157;SDS011;64907;51.574;6.502;2023-08-07T01:04:34;8.18;;;3.35;;
76157;SDS011;64907;51.574;6.502;2023-08-07T01:06:59;10.77;;;3.63;;
76157;SDS011;64907;51.574;6.502;2023-08-07T01:09:24;8.90;;;3.95;;
76157;SDS011;64907;51.574;6.502;2023-08-07T01:11:50;7.15;;;3.30;;
76157;SDS011;64907;51.574;6.502;2023-08-07T01:19:23;11.23;;;3.88;;
76157;SDS011;64907;51.574;6.502;2023-08-07T01:21:49;11.57;;;3.63;;
76157;SDS011;64907;51.574;6.502;2023-08-07T01:24:27;12.80;;;3.53;;
76157;SDS011;64907;51.574;6.502;2023-08-07T01:26:52;7.95;;;3.47;;
76157;SDS011;64907;51.574;6.502;2023-08-07T01:29:22;6.85;;;3.70;;
76157;SDS011;64907;51.574;6.502;2023-08-07T01:31:50;8.60;;;3.70;;
76157;SDS011;64907;51.574;6.502;2023-08-07T01:34:18;10.00;;;3.88;;
76157;SDS011;64907;51.574;6.502;2023-08-07T01:36:45;12.60;;;4.18;;
76157;SDS011;64907;51.574;6.502;2023-08-07T01:39:11;11.75;;;4.30;;
76157;SDS011;64907;51.574;6.502;2023-08-07T01:41:36;14.98;;;3.95;;
76157;SDS011;64907;51.574;6.502;2023-08-07T01:44:11;10.68;;;3.47;;
76157;SDS011;64907;51.574;6.502;2023-08-07T01:46:37;13.68;;;4.30;;
76157;SDS011;64907;51.574;6.502;2023-08-07T01:49:02;8.82;;;4.90;;
76157;SDS011;64907;51.574;6.502;2023-08-07T01:51:27;6.10;;;3.53;;
76157;SDS011;64907;51.574;6.502;2023-08-07T01:53:52;6.10;;;3.20;;
76157;SDS011;64907;51.574;6.502;2023-08-07T01:56:17;7.18;;;3.03;;
76157;SDS011;64907;51.574;6.502;2023-08-07T01:58:43;5.60;;;3.17;;
76157;SDS011;64907;51.574;6.502;2023-08-07T02:01:08;8.18;;;3.40;;
76157;SDS011;64907;51.574;6.502;2023-08-07T02:03:33;7.47;;;3.30;;
76157;SDS011;64907;51.574;6.502;2023-08-07T02:05:58;8.25;;;3.30;;
76157;SDS011;64907;51.574;6.502;2023-08-07T02:08:24;5.70;;;4.13;;
76157;SDS011;64907;51.574;6.502;2023-08-07T02:10:49;5.30;;;3.00;;
76157;SDS011;64907;51.574;6.502;2023-08-07T02:13:14;13.00;;;4.15;;
76157;SDS011;64907;51.574;6.502;2023-08-07T02:15:39;10.57;;;4.10;;
76157;SDS011;64907;51.574;6.502;2023-08-07T02:18:04;8.53;;;4.03;;
76157;SDS011;64907;51.574;6.502;2023-08-07T02:20:30;6.85;;;4.25;;
76157;SDS011;64907;51.574;6.502;2023-08-07T02:22:55;7.50;;;3.47;;
76157;SDS011;64907;51.574;6.502;2023-08-07T02:25:20;8.27;;;3.83;;
76157;SDS011;64907;51.574;6.502;2023-08-07T02:27:45;9.20;;;4.07;;
76157;SDS011;64907;51.574;6.502;2023-08-07T02:30:10;8.53;;;3.80;;
76157;SDS011;64907;51.574;6.502;2023-08-07T02:32:36;8.55;;;4.75;;
76157;SDS011;64907;51.574;6.502;2023-08-07T02:35:01;20.23;;;5.13;;
76157;SDS011;64907;51.574;6.502;2023-08-07T02:37:26;11.68;;;3.80;;
76157;SDS011;64907;51.574;6.502;2023-08-07T02:39:51;14.98;;;4.05;;
76157;SDS011;64907;51.574;6.502;2023-08-07T02:42:18;12.65;;;4.80;;
76157;SDS011;64907;51.574;6.502;2023-08-07T02:44:43;10.80;;;4.70;;
76157;SDS011;64907;51.574;6.502;2023-08-07T02:47:08;15.48;;;5.03;;
76157;SDS011;64907;51.574;6.502;2023-08-07T02:49:34;13.00;;;4.60;;
76157;SDS011;64907;51.574;6.502;2023-08-07T02:51:59;12.83;;;3.90;;
76157;SDS011;64907;51.574;6.502;2023-08-07T02:54:24;14.40;;;4.47;;
76157;SDS011;64907;51.574;6.502;2023-08-07T02:59:17;16.10;;;3.70;;
76157;SDS011;64907;51.574;6.502;2023-08-07T03:01:43;12.63;;;3.80;;
76157;SDS011;64907;51.574;6.502;2023-08-07T03:04:08;7.93;;;3.80;;
76157;SDS011;64907;51.574;6.502;2023-08-07T03:06:33;15.77;;;4.00;;
76157;SDS011;64907;51.574;6.502;2023-08-07T03:08:59;10.67;;;3.57;;
76157;SDS011;64907;51.574;6.502;2023-08-07T03:11:24;14.50;;;4.20;;
76157;SDS011;64907;51.574;6.502;2023-08-07T03:13:49;11.13;;;3.80;;
76157;SDS011;64907;51.574;6.502;2023-08-07T03:16:15;12.93;;;5.07;;
76157;SDS011;64907;51.574;6.502;2023-08-07T03:18:53;15.40;;;4.20;;
76157;SDS011;64907;51.574;6.502;2023-08-07T03:21:18;11.38;;;4.60;;
76157;SDS011;64907;51.574;6.502;2023-08-07T03:23:43;13.68;;;4.63;;
76157;SDS011;64907;51.574;6.502;2023-08-07T03:26:10;10.00;;;3.73;;
76157;SDS011;64907;51.574;6.502;2023-08-07T03:28:35;14.23;;;3.72;;
76157;SDS011;64907;51.574;6.502;2023-08-07T03:33:41;14.32;;;4.10;;
76157;SDS011;64907;51.574;6.502;2023-08-07T03:36:06;11.68;;;3.42;;
76157;SDS011;64907;51.574;6.502;2023-08-07T03:38:34;9.90;;;3.13;;
76157;SDS011;64907;51.574;6.502;2023-08-07T03:40:59;13.52;;;3.92;;
76157;SDS011;64907;51.574;6.502;2023-08-07T03:43:24;9.10;;;3.57;;
76157;SDS011;64907;51.574;6.502;2023-08-07T03:45:53;13.47;;;4.13;;
76157;SDS011;64907;51.574;6.502;2023-08-07T03:48:18;13.93;;;3.75;;
76157;SDS011;64907;51.574;6.502;2023-08-07T03:50:44;8.40;;;3.80;;
76157;SDS011;64907;51.574;6.502;2023-08-07T03:53:09;10.93;;;3.97;;
76157;SDS011;64907;51.574;6.502;2023-08-07T03:58:16;11.85;;;4.38;;
76157;SDS011;64907;51.574;6.502;2023-08-07T04:00:41;10.97;;;3.80;;
76157;SDS011;64907;51.574;6.502;2023-08-07T04:03:07;11.43;;;3.33;;
76157;SDS011;64907;51.574;6.502;2023-08-07T04:05:33;20.20;;;4.80;;
76157;SDS011;64907;51.574;6.502;2023-08-07T04:07:58;12.38;;;3.50;;
76157;SDS011;64907;51.574;6.502;2023-08-07T04:12:59;13.93;;;4.13;;
76157;SDS011;64907;51.574;6.502;2023-08-07T04:15:25;6.07;;;3.00;;
76157;SDS011;64907;51.574;6.502;2023-08-07T04:17:50;10.30;;;3.78;;
76157;SDS011;64907;51.574;6.502;2023-08-07T04:20:16;10.57;;;4.43;;
76157;SDS011;64907;51.574;6.502;2023-08-07T04:22:41;12.02;;;4.22;;
76157;SDS011;64907;51.574;6.502;2023-08-07T04:25:07;11.77;;;3.90;;
76157;SDS011;64907;51.574;6.502;2023-08-07T04:27:32;14.82;;;4.80;;
76157;SDS011;64907;51.574;6.502;2023-08-07T04:29:57;14.53;;;5.47;;
76157;SDS011;64907;51.574;6.502;2023-08-07T04:32:23;12.52;;;3.95;;
76157;SDS011;64907;51.574;6.502;2023-08-07T04:34:48;9.43;;;4.47;;
76157;SDS011;64907;51.574;6.502;2023-08-07T04:37:13;16.15;;;4.68;;
76157;SDS011;64907;51.574;6.502;2023-08-07T04:39:38;15.32;;;4.22;;
76157;SDS011;64907;51.574;6.502;2023-08-07T04:42:04;17.00;;;4.45;;
76157;SDS011;64907;51.574;6.502;2023-08-07T04:44:29;15.50;;;5.13;;
76157;SDS011;64907;51.574;6.502;2023-08-07T04:46:54;20.33;;;4.20;;
76157;SDS011;64907;51.574;6.502;2023-08-07T04:49:19;20.85;;;5.55;;
76157;SDS011;64907;51.574;6.502;2023-08-07T04:51:44;15.20;;;4.53;;
76157;SDS011;64907;51.574;6.502;2023-08-07T04:54:10;14.17;;;5.10;;
76157;SDS011;64907;51.574;6.502;2023-08-07T04:56:35;18.67;;;4.97;;
76157;SDS011;64907;51.574;6.502;2023-08-07T04:59:03;13.97;;;4.53;;
76157;SDS011;64907;51.574;6.502;2023-08-07T05:01:28;9.23;;;4.43;;
76157;SDS011;64907;51.574;6.502;2023-08-07T05:03:53;14.87;;;4.53;;
76157;SDS011;64907;51.574;6.502;2023-08-07T05:06:19;13.13;;;4.70;;
76157;SDS011;64907;51.574;6.502;2023-08-07T05:08:47;17.75;;;5.00;;
76157;SDS011;64907;51.574;6.502;2023-08-07T05:11:20;16.25;;;4.30;;
76157;SDS011;64907;51.574;6.502;2023-08-07T05:13:46;13.23;;;5.65;;
76157;SDS011;64907;51.574;6.502;2023-08-07T05:16:11;13.23;;;4.17;;
76157;SDS011;64907;51.574;6.502;2023-08-07T05:18:37;15.10;;;4.60;;
76157;SDS011;64907;51.574;6.502;2023-08-07T05:23:34;9.43;;;4.47;;
76157;SDS011;64907;51.574;6.502;2023-08-07T05:28:30;12.68;;;5.50;;
76157;SDS011;64907;51.574;6.502;2023-08-07T05:30:55;18.23;;;4.70;;
76157;SDS011;64907;51.574;6.502;2023-08-07T05:33:21;10.27;;;4.25;;
76157;SDS011;64907;51.574;6.502;2023-08-07T05:35:56;13.23;;;5.35;;
76157;SDS011;64907;51.574;6.502;2023-08-07T05:41:12;9.40;;;3.72;;
76157;SDS011;64907;51.574;6.502;2023-08-07T05:43:38;14.90;;;5.68;;
76157;SDS011;64907;51.574;6.502;2023-08-07T05:49:05;12.07;;;5.00;;
76157;SDS011;64907;51.574;6.502;2023-08-07T05:51:30;13.00;;;4.90;;
76157;SDS011;64907;51.574;6.502;2023-08-07T05:53:55;16.98;;;5.18;;
76157;SDS011;64907;51.574;6.502;2023-08-07T05:56:21;13.80;;;5.57;;
76157;SDS011;64907;51.574;6.502;2023-08-07T05:58:46;13.27;;;5.25;;
76157;SDS011;64907;51.574;6.502;2023-08-07T06:01:11;6.90;;;4.60;;
76157;SDS011;64907;51.574;6.502;2023-08-07T06:09:02;10.20;;;4.50;;
76157;SDS011;64907;51.574;6.502;2023-08-07T06:11:29;10.65;;;5.47;;
76157;SDS011;64907;51.574;6.502;2023-08-07T06:13:54;11.77;;;4.55;;
76157;SDS011;64907;51.574;6.502;2023-08-07T06:16:29;11.82;;;5.10;;
76157;SDS011;64907;51.574;6.502;2023-08-07T06:21:24;11.95;;;4.78;;
76157;SDS011;64907;51.574;6.502;2023-08-07T06:28:56;20.17;;;5.57;;
76157;SDS011;64907;51.574;6.502;2023-08-07T06:31:34;14.00;;;5.07;;
76157;SDS011;64907;51.574;6.502;2023-08-07T06:34:00;12.98;;;5.13;;
76157;SDS011;64907;51.574;6.502;2023-08-07T06:36:31;10.45;;;4.63;;
76157;SDS011;64907;51.574;6.502;2023-08-07T06:38:56;12.70;;;5.95;;
76157;SDS011;64907;51.574;6.502;2023-08-07T06:41:28;11.98;;;4.78;;
76157;SDS011;64907;51.574;6.502;2023-08-07T06:43:56;18.05;;;6.57;;
76157;SDS011;64907;51.574;6.502;2023-08-07T06:46:21;11.27;;;5.05;;
76157;SDS011;64907;51.574;6.502;2023-08-07T06:48:51;11.68;;;5.43;;
76157;SDS011;64907;51.574;6.502;2023-08-07T06:51:16;14.35;;;5.43;;
76157;SDS011;64907;51.574;6.502;2023-08-07T06:53:41;15.75;;;5.32;;
76157;SDS011;64907;51.574;6.502;2023-08-07T06:56:07;13.40;;;5.95;;
76157;SDS011;64907;51.574;6.502;2023-08-07T06:58:32;10.50;;;5.72;;
76157;SDS011;64907;51.574;6.502;2023-08-07T07:00:57;11.02;;;4.63;;
76157;SDS011;64907;51.574;6.502;2023-08-07T07:06:17;8.73;;;4.78;;
76157;SDS011;64907;51.574;6.502;2023-08-07T07:08:42;13.55;;;4.53;;
76157;SDS011;64907;51.574;6.502;2023-08-07T07:11:07;10.37;;;3.90;;
76157;SDS011;64907;51.574;6.502;2023-08-07T07:13:33;15.38;;;5.75;;
76157;SDS011;64907;51.574;6.502;2023-08-07T07:15:58;9.75;;;4.38;;
76157;SDS011;64907;51.574;6.502;2023-08-07T07:18:23;7.23;;;4.50;;
76157;SDS011;64907;51.574;6.502;2023-08-07T07:20:55;11.85;;;4.57;;
76157;SDS011;64907;51.574;6.502;2023-08-07T07:23:21;10.48;;;4.55;;
76157;SDS011;64907;51.574;6.502;2023-08-07T07:25:46;11.90;;;5.27;;
76157;SDS011;64907;51.574;6.502;2023-08-07T07:28:11;8.90;;;4.28;;
76157;SDS011;64907;51.574;6.502;2023-08-07T07:33:18;7.78;;;3.70;;
76157;SDS011;64907;51.574;6.502;2023-08-07T07:35:44;6.18;;;3.70;;
76157;SDS011;64907;51.574;6.502;2023-08-07T07:38:09;12.13;;;3.35;;
76157;SDS011;64907;51.574;6.502;2023-08-07T07:40:35;10.77;;;3.63;;
76157;SDS011;64907;51.574;6.502;2023-08-07T07:43:00;6.28;;;3.25;;
76157;SDS011;64907;51.574;6.502;2023-08-07T07:45:25;7.83;;;2.80;;
76157;SDS011;64907;51.574;6.502;2023-08-07T07:47:51;4.47;;;2.93;;
76157;SDS011;64907;51.574;6.502;2023-08-07T07:50:16;9.25;;;3.05;;
76157;SDS011;64907;51.574;6.502;2023-08-07T07:52:41;8.47;;;3.30;;
76157;SDS011;64907;51.574;6.502;2023-08-07T07:55:06;8.80;;;3.27;;
76157;SDS011;64907;51.574;6.502;2023-08-07T07:57:33;5.35;;;2.65;;
76157;SDS011;64907;51.574;6.502;2023-08-07T08:02:35;7.88;;;3.10;;
76157;SDS011;64907;51.574;6.502;2023-08-07T08:05:12;7.97;;;3.67;;
76157;SDS011;64907;51.574;6.502;2023-08-07T08:07:38;8.15;;;3.53;;
76157;SDS011;64907;51.574;6.502;2023-08-07T08:10:05;11.65;;;3.85;;
76157;SDS011;64907;51.574;6.502;2023-08-07T08:12:34;6.55;;;3.58;;
76157;SDS011;64907;51.574;6.502;2023-08-07T08:14:59;9.98;;;3.25;;
76157;SDS011;64907;51.574;6.502;2023-08-07T08:17:24;10.77;;;3.05;;
76157;SDS011;64907;51.574;6.502;2023-08-07T08:19:49;6.43;;;3.47;;
76157;SDS011;64907;51.574;6.502;2023-08-07T08:22:16;10.47;;;3.20;;
76157;SDS011;64907;51.574;6.502;2023-08-07T08:24:41;10.57;;;3.08;;
76157;SDS011;64907;51.574;6.502;2023-08-07T08:27:07;6.18;;;3.22;;
76157;SDS011;64907;51.574;6.502;2023-08-07T08:29:32;7.33;;;3.50;;
76157;SDS011;64907;51.574;6.502;2023-08-07T08:31:57;8.15;;;3.17;;
76157;SDS011;64907;51.574;6.502;2023-08-07T08:34:22;5.88;;;2.70;;
76157;SDS011;64907;51.574;6.502;2023-08-07T08:36:47;9.30;;;3.13;;
76157;SDS011;64907;51.574;6.502;2023-08-07T08:39:13;7.25;;;3.58;;
76157;SDS011;64907;51.574;6.502;2023-08-07T08:41:38;9.00;;;3.33;;
76157;SDS011;64907;51.574;6.502;2023-08-07T08:44:05;8.45;;;3.17;;
76157;SDS011;64907;51.574;6.502;2023-08-07T08:46:31;8.40;;;3.20;;
76157;SDS011;64907;51.574;6.502;2023-08-07T08:48:57;5.85;;;3.20;;
76157;SDS011;64907;51.574;6.502;2023-08-07T08:53:53;7.10;;;3.80;;
76157;SDS011;64907;51.574;6.502;2023-08-07T08:56:21;8.98;;;3.75;;
76157;SDS011;64907;51.574;6.502;2023-08-07T08:58:52;12.65;;;4.55;;
76157;SDS011;64907;51.574;6.502;2023-08-07T09:03:49;8.93;;;4.47;;
76157;SDS011;64907;51.574;6.502;2023-08-07T09:08:44;6.65;;;3.90;;
76157;SDS011;64907;51.574;6.502;2023-08-07T09:11:10;5.82;;;3.65;;
76157;SDS011;64907;51.574;6.502;2023-08-07T09:13:36;6.22;;;3.70;;
76157;SDS011;64907;51.574;6.502;2023-08-07T09:16:01;6.97;;;3.67;;
76157;SDS011;64907;51.574;6.502;2023-08-07T09:18:26;8.25;;;3.97;;
76157;SDS011;64907;51.574;6.502;2023-08-07T09:20:52;13.20;;;4.15;;
76157;SDS011;64907;51.574;6.502;2023-08-07T09:23:25;13.38;;;4.20;;
76157;SDS011;64907;51.574;6.502;2023-08-07T09:26:01;8.45;;;4.10;;
76157;SDS011;64907;51.574;6.502;2023-08-07T09:28:26;13.60;;;4.32;;
76157;SDS011;64907;51.574;6.502;2023-08-07T09:30:53;9.35;;;4.07;;
76157;SDS011;64907;51.574;6.502;2023-08-07T09:35:57;10.98;;;3.65;;
76157;SDS011;64907;51.574;6.502;2023-08-07T09:38:22;11.13;;;4.65;;
76157;SDS011;64907;51.574;6.502;2023-08-07T09:40:48;11.50;;;3.70;;
76157;SDS011;64907;51.574;6.502;2023-08-07T09:43:21;8.93;;;3.20;;
76157;SDS011;64907;51.574;6.502;2023-08-07T09:45:47;11.80;;;4.32;;
76157;SDS011;64907;51.574;6.502;2023-08-07T09:48:15;11.00;;;4.35;;
76157;SDS011;64907;51.574;6.502;2023-08-07T09:50:40;7.90;;;3.20;;
76157;SDS011;64907;51.574;6.502;2023-08-07T09:53:05;10.52;;;3.55;;
76157;SDS011;64907;51.574;6.502;2023-08-07T09:55:30;10.20;;;3.47;;
76157;SDS011;64907;51.574;6.502;2023-08-07T09:57:56;9.32;;;3.95;;
76157;SDS011;64907;51.574;6.502;2023-08-07T10:00:21;8.05;;;3.50;;
76157;SDS011;64907;51.574;6.502;2023-08-07T10:02:56;11.37;;;3.60;;
76157;SDS011;64907;51.574;6.502;2023-08-07T10:05:21;10.50;;;3.83;;
76157;SDS011;64907;51.574;6.502;2023-08-07T10:07:46;10.10;;;3.85;;
76157;SDS011;64907;51.574;6.502;2023-08-07T10:10:12;8.38;;;3.97;;
76157;SDS011;64907;51.574;6.502;2023-08-07T10:12:37;15.15;;;4.20;;
76157;SDS011;64907;51.574;6.502;2023-08-07T10:15:03;10.15;;;3.90;;
76157;SDS011;64907;51.574;6.502;2023-08-07T10:17:29;10.82;;;3.60;;
76157;SDS011;64907;51.574;6.502;2023-08-07T10:19:54;11.15;;;3.63;;
76157;SDS011;64907;51.574;6.502;2023-08-07T10:22:20;7.38;;;3.47;;
76157;SDS011;64907;51.574;6.502;2023-08-07T10:24:48;11.10;;;3.80;;
76157;SDS011;64907;51.574;6.502;2023-08-07T10:27:15;9.50;;;3.72;;
76157;SDS011;64907;51.574;6.502;2023-08-07T10:29:41;8.73;;;4.35;;
76157;SDS011;64907;51.574;6.502;2023-08-07T10:32:07;7.65;;;3.88;;
76157;SDS011;64907;51.574;6.502;2023-08-07T10:34:38;11.40;;;4.05;;
76157;SDS011;64907;51.574;6.502;2023-08-07T10:37:07;12.02;;;4.22;;
76157;SDS011;64907;51.574;6.502;2023-08-07T10:42:08;10.70;;;3.92;;
76157;SDS011;64907;51.574;6.502;2023-08-07T10:44:39;13.60;;;3.80;;
76157;SDS011;64907;51.574;6.502;2023-08-07T10:47:12;11.38;;;3.25;;
76157;SDS011;64907;51.574;6.502;2023-08-07T10:49:53;7.10;;;3.10;;
76157;SDS011;64907;51.574;6.502;2023-08-07T10:52:18;11.30;;;3.80;;
76157;SDS011;64907;51.574;6.502;2023-08-07T10:54:49;7.80;;;3.63;;
76157;SDS011;64907;51.574;6.502;2023-08-07T10:57:15;6.57;;;3.00;;
76157;SDS011;64907;51.574;6.502;2023-08-07T10:59:44;5.63;;;2.60;;
76157;SDS011;64907;51.574;6.502;2023-08-07T11:02:11;4.43;;;2.90;;
76157;SDS011;64907;51.574;6.502;2023-08-07T11:04:37;13.38;;;3.90;;
76157;SDS011;64907;51.574;6.502;2023-08-07T11:07:08;11.50;;;3.35;;
76157;SDS011;64907;51.574;6.502;2023-08-07T11:09:34;8.40;;;3.90;;
76157;SDS011;64907;51.574;6.502;2023-08-07T11:11:59;8.55;;;3.45;;
76157;SDS011;64907;51.574;6.502;2023-08-07T11:19:47;6.40;;;3.08;;
76157;SDS011;64907;51.574;6.502;2023-08-07T11:22:12;20.15;;;4.00;;
76157;SDS011;64907;51.574;6.502;2023-08-07T11:24:39;4.60;;;2.50;;
76157;SDS011;64907;51.574;6.502;2023-08-07T11:27:05;9.37;;;3.60;;
76157;SDS011;64907;51.574;6.502;2023-08-07T11:29:32;7.28;;;3.35;;
76157;SDS011;64907;51.574;6.502;2023-08-07T11:31:57;6.20;;;2.92;;
76157;SDS011;64907;51.574;6.502;2023-08-07T11:34:23;4.63;;;2.57;;
76157;SDS011;64907;51.574;6.502;2023-08-07T11:36:48;8.23;;;2.50;;
76157;SDS011;64907;51.574;6.502;2023-08-07T11:39:13;7.72;;;2.65;;
76157;SDS011;64907;51.574;6.502;2023-08-07T11:41:50;4.97;;;2.25;;
76157;SDS011;64907;51.574;6.502;2023-08-07T11:44:15;8.32;;;2.20;;
76157;SDS011;64907;51.574;6.502;2023-08-07T11:46:41;5.18;;;2.35;;
76157;SDS011;64907;51.574;6.502;2023-08-07T11:49:14;4.78;;;2.20;;
76157;SDS011;64907;51.574;6.502;2023-08-07T11:51:39;4.57;;;2.47;;
76157;SDS011;64907;51.574;6.502;2023-08-07T11:54:04;5.47;;;2.13;;
76157;SDS011;64907;51.574;6.502;2023-08-07T11:56:32;6.83;;;2.47;;
76157;SDS011;64907;51.574;6.502;2023-08-07T11:58:57;9.85;;;3.40;;
76157;SDS011;64907;51.574;6.502;2023-08-07T12:01:24;5.18;;;2.78;;
76157;SDS011;64907;51.574;6.502;2023-08-07T12:03:54;7.55;;;2.70;;
76157;SDS011;64907;51.574;6.502;2023-08-07T12:06:23;5.45;;;2.30;;
76157;SDS011;64907;51.574;6.502;2023-08-07T12:11:38;5.35;;;2.25;;
76157;SDS011;64907;51.574;6.502;2023-08-07T12:14:04;5.80;;;2.80;;
76157;SDS011;64907;51.574;6.502;2023-08-07T12:16:32;5.53;;;2.77;;
76157;SDS011;64907;51.574;6.502;2023-08-07T12:18:57;11.88;;;2.90;;
76157;SDS011;64907;51.574;6.502;2023-08-07T12:21:23;4.57;;;2.60;;
76157;SDS011;64907;51.574;6.502;2023-08-07T12:23:55;2.90;;;2.10;;
76157;SDS011;64907;51.574;6.502;2023-08-07T12:26:20;9.05;;;3.08;;
76157;SDS011;64907;51.574;6.502;2023-08-07T12:28:45;5.20;;;2.10;;
76157;SDS011;64907;51.574;6.502;2023-08-07T12:31:11;8.77;;;2.70;;
76157;SDS011;64907;51.574;6.502;2023-08-07T12:33:36;6.90;;;3.03;;
76157;SDS011;64907;51.574;6.502;2023-08-07T12:36:01;4.93;;;2.35;;
76157;SDS011;64907;51.574;6.502;2023-08-07T12:41:23;5.55;;;2.67;;
76157;SDS011;64907;51.574;6.502;2023-08-07T12:43:49;8.37;;;2.70;;
76157;SDS011;64907;51.574;6.502;2023-08-07T12:46:14;5.60;;;1.80;;
76157;SDS011;64907;51.574;6.502;2023-08-07T12:48:39;4.38;;;2.28;;
76157;SDS011;64907;51.574;6.502;2023-08-07T12:51:04;5.63;;;2.00;;
76157;SDS011;64907;51.574;6.502;2023-08-07T12:53:32;5.35;;;1.95;;
76157;SDS011;64907;51.574;6.502;2023-08-07T12:55:57;3.88;;;2.00;;
76157;SDS011;64907;51.574;6.502;2023-08-07T12:58:22;2.87;;;1.80;;
76157;SDS011;64907;51.574;6.502;2023-08-07T13:00:50;2.97;;;2.00;;
76157;SDS011;64907;51.574;6.502;2023-08-07T13:03:15;3.75;;;2.00;;
76157;SDS011;64907;51.574;6.502;2023-08-07T13:05:40;3.10;;;1.67;;
76157;SDS011;64907;51.574;6.502;2023-08-07T13:08:06;2.73;;;1.90;;
76157;SDS011;64907;51.574;6.502;2023-08-07T13:10:31;8.07;;;2.40;;
76157;SDS011;64907;51.574;6.502;2023-08-07T13:12:56;5.28;;;2.17;;
76157;SDS011;64907;51.574;6.502;2023-08-07T13:15:21;4.70;;;2.72;;
76157;SDS011;64907;51.574;6.502;2023-08-07T13:17:46;7.10;;;2.30;;
76157;SDS011;64907;51.574;6.502;2023-08-07T13:20:12;9.13;;;2.00;;
76157;SDS011;64907;51.574;6.502;2023-08-07T13:22:45;4.07;;;1.92;;
76157;SDS011;64907;51.574;6.502;2023-08-07T13:25:11;3.45;;;1.85;;
76157;SDS011;64907;51.574;6.502;2023-08-07T13:27:36;7.15;;;2.00;;
76157;SDS011;64907;51.574;6.502;2023-08-07T13:30:02;6.25;;;2.40;;
76157;SDS011;64907;51.574;6.502;2023-08-07T13:32:29;4.57;;;1.52;;
76157;SDS011;64907;51.574;6.502;2023-08-07T13:34:56;3.63;;;2.10;;
76157;SDS011;64907;51.574;6.502;2023-08-07T13:37:22;3.42;;;1.85;;
76157;SDS011;64907;51.574;6.502;2023-08-07T13:39:50;3.10;;;1.90;;
76157;SDS011;64907;51.574;6.502;2023-08-07T13:42:17;4.18;;;2.00;;
76157;SDS011;64907;51.574;6.502;2023-08-07T13:44:43;7.20;;;1.83;;
76157;SDS011;64907;51.574;6.502;2023-08-07T13:47:09;2.42;;;1.77;;
76157;SDS011;64907;51.574;6.502;2023-08-07T13:49:35;5.53;;;1.90;;
76157;SDS011;64907;51.574;6.502;2023-08-07T13:52:02;3.57;;;2.50;;
76157;SDS011;64907;51.574;6.502;2023-08-07T13:54:30;4.60;;;2.22;;
76157;SDS011;64907;51.574;6.502;2023-08-07T13:56:55;2.97;;;1.85;;
76157;SDS011;64907;51.574;6.502;2023-08-07T13:59:20;2.83;;;1.83;;
76157;SDS011;64907;51.574;6.502;2023-08-07T14:01:45;5.15;;;1.92;;
76157;SDS011;64907;51.574;6.502;2023-08-07T14:06:59;4.40;;;1.80;;
76157;SDS011;64907;51.574;6.502;2023-08-07T14:09:25;2.80;;;1.85;;
76157;SDS011;64907;51.574;6.502;2023-08-07T14:14:23;2.28;;;1.33;;
76157;SDS011;64907;51.574;6.502;2023-08-07T14:16:48;3.80;;;1.92;;
76157;SDS011;64907;51.574;6.502;2023-08-07T14:19:13;1.70;;;1.60;;
76157;SDS011;64907;51.574;6.502;2023-08-07T14:24:09;2.83;;;1.52;;
76157;SDS011;64907;51.574;6.502;2023-08-07T14:26:41;2.28;;;1.60;;
76157;SDS011;64907;51.574;6.502;2023-08-07T14:29:06;2.10;;;1.85;;
76157;SDS011;64907;51.574;6.502;2023-08-07T14:31:37;4.57;;;1.52;;
76157;SDS011;64907;51.574;6.502;2023-08-07T14:34:02;2.15;;;1.85;;
76157;SDS011;64907;51.574;6.502;2023-08-07T14:36:28;1.67;;;1.50;;
76157;SDS011;64907;51.574;6.502;2023-08-07T14:38:53;3.70;;;1.80;;
76157;SDS011;64907;51.574;6.502;2023-08-07T14:41:18;4.80;;;1.73;;
76157;SDS011;64907;51.574;6.502;2023-08-07T14:43:43;5.22;;;1.60;;
76157;SDS011;64907;51.574;6.502;2023-08-07T14:46:08;3.90;;;1.77;;
76157;SDS011;64907;51.574;6.502;2023-08-07T14:48:35;4.07;;;1.80;;
76157;SDS011;64907;51.574;6.502;2023-08-07T14:51:00;5.40;;;1.70;;
76157;SDS011;64907;51.574;6.502;2023-08-07T14:53:25;2.97;;;1.50;;
76157;SDS011;64907;51.574;6.502;2023-08-07T14:55:53;1.77;;;1.67;;
76157;SDS011;64907;51.574;6.502;2023-08-07T14:58:31;2.10;;;1.38;;
76157;SDS011;64907;51.574;6.502;2023-08-07T15:00:57;5.00;;;2.40;;
76157;SDS011;64907;51.574;6.502;2023-08-07T15:03:22;3.05;;;1.63;;
76157;SDS011;64907;51.574;6.502;2023-08-07T15:05:50;3.63;;;1.45;;
76157;SDS011;64907;51.574;6.502;2023-08-07T15:08:15;3.95;;;1.65;;
76157;SDS011;64907;51.574;6.502;2023-08-07T15:10:40;1.93;;;1.80;;
76157;SDS011;64907;51.574;6.502;2023-08-07T15:13:05;2.13;;;1.83;;
76157;SDS011;64907;51.574;6.502;2023-08-07T15:15:31;2.80;;;1.67;;
76157;SDS011;64907;51.574;6.502;2023-08-07T15:17:59;2.22;;;1.92;;
76157;SDS011;64907;51.574;6.502;2023-08-07T15:22:57;2.25;;;1.58;;
76157;SDS011;64907;51.574;6.502;2023-08-07T15:25:22;2.97;;;1.70;;
76157;SDS011;64907;51.574;6.502;2023-08-07T15:27:47;2.63;;;1.70;;
76157;SDS011;64907;51.574;6.502;2023-08-07T15:30:12;2.63;;;1.73;;
76157;SDS011;64907;51.574;6.502;2023-08-07T15:32:38;5.13;;;2.10;;
76157;SDS011;64907;51.574;6.502;2023-08-07T15:35:03;2.17;;;1.75;;
76157;SDS011;64907;51.574;6.502;2023-08-07T15:37:29;2.90;;;1.85;;
76157;SDS011;64907;51.574;6.502;2023-08-07T15:39:55;2.13;;;1.92;;
76157;SDS011;64907;51.574;6.502;2023-08-07T15:42:20;3.40;;;2.40;;
76157;SDS011;64907;51.574;6.502;2023-08-07T15:44:45;2.73;;;2.50;;
76157;SDS011;64907;51.574;6.502;2023-08-07T15:47:10;3.77;;;2.17;;
76157;SDS011;64907;51.574;6.502;2023-08-07T15:49:35;3.53;;;2.00;;
76157;SDS011;64907;51.574;6.502;2023-08-07T15:52:00;3.60;;;1.92;;
76157;SDS011;64907;51.574;6.502;2023-08-07T15:54:26;4.40;;;2.23;;
76157;SDS011;64907;51.574;6.502;2023-08-07T15:56:51;2.53;;;2.33;;
76157;SDS011;64907;51.574;6.502;2023-08-07T15:59:24;3.05;;;2.05;;
76157;SDS011;64907;51.574;6.502;2023-08-07T16:06:50;3.33;;;2.22;;